createdAt,value
2023-02-12T00:02:22.056Z,10.68
2023-02-12T00:04:51.577Z,10.26
2023-02-12T00:07:20.858Z,10.42
2023-02-12T00:09:50.409Z,10.49
2023-02-12T00:12:19.602Z,10.19
2023-02-12T00:14:49.320Z,10.48
2023-02-12T00:17:18.597Z,10.43
2023-02-12T00:19:51.382Z,10.34
2023-02-12T00:22:20.572Z,10.34
2023-02-12T00:24:49.991Z,10.62
2023-02-12T00:27:19.367Z,10.71
2023-02-12T00:29:48.864Z,10.61
2023-02-12T00:32:19.694Z,10.18
2023-02-12T00:34:50.845Z,10.18
2023-02-12T00:37:20.238Z,10.44
2023-02-12T00:39:49.942Z,10.21
2023-02-12T00:42:19.089Z,10.07
2023-02-12T00:44:48.716Z,9.88
2023-02-12T00:47:18.076Z,9.90
2023-02-12T00:49:47.526Z,10.29
2023-02-12T00:52:18.150Z,9.93
2023-02-12T00:54:47.753Z,9.92
2023-02-12T00:57:17.085Z,10.01
2023-02-12T00:59:46.678Z,10.29
2023-02-12T01:02:16.120Z,10.09
2023-02-12T01:04:45.721Z,10.25
2023-02-12T01:07:14.952Z,10.27
2023-02-12T01:09:45.977Z,10.31
2023-02-12T01:12:15.311Z,10.46
2023-02-12T01:14:45.193Z,10.31
2023-02-12T01:17:14.655Z,10.45
2023-02-12T01:19:47.147Z,10.37
2023-02-12T01:22:16.376Z,10.21
2023-02-12T01:24:47.417Z,10.07
2023-02-12T01:27:17.462Z,10.11
2023-02-12T01:29:46.915Z,10.07
2023-02-12T01:32:16.262Z,10.16
2023-02-12T01:34:45.784Z,9.93
2023-02-12T01:37:15.044Z,10.12
2023-02-12T01:39:44.659Z,9.66
2023-02-12T01:42:18.739Z,9.77
2023-02-12T01:45:26.224Z,9.68
2023-02-12T01:47:56.019Z,9.37
2023-02-12T01:50:25.548Z,9.17
2023-02-12T01:52:58.900Z,9.24
2023-02-12T01:55:28.437Z,8.89
2023-02-12T01:57:59.259Z,9.06
2023-02-12T02:00:28.939Z,9.03
2023-02-12T02:03:02.817Z,8.83
2023-02-12T02:05:42.353Z,8.64
2023-02-12T02:08:12.230Z,8.66
2023-02-12T02:10:42.007Z,8.39
2023-02-12T02:13:30.435Z,8.26
2023-02-12T02:16:07.613Z,8.28
2023-02-12T02:18:45.687Z,8.30
2023-02-12T02:21:51.455Z,8.09
2023-02-12T02:25:00.550Z,8.07
2023-02-12T02:27:41.075Z,8.02
2023-02-12T02:30:32.774Z,8.09
2023-02-12T02:33:14.899Z,8.02
2023-02-12T02:35:51.471Z,7.98
2023-02-12T02:38:26.906Z,7.90
2023-02-12T02:41:03.883Z,7.92
2023-02-12T02:43:37.912Z,7.90
2023-02-12T02:46:15.009Z,7.88
2023-02-12T02:48:48.304Z,7.73
2023-02-12T02:51:21.246Z,7.67
2023-02-12T02:53:55.261Z,7.59
2023-02-12T02:56:29.330Z,7.62
2023-02-12T02:59:04.851Z,7.57
2023-02-12T03:01:41.318Z,7.59
2023-02-12T03:04:15.067Z,7.73
2023-02-12T03:06:51.966Z,7.58
2023-02-12T03:09:27.444Z,7.58
2023-02-12T03:12:00.829Z,7.47
2023-02-12T03:14:33.543Z,7.54
2023-02-12T03:17:08.045Z,7.43
2023-02-12T03:19:42.711Z,7.42
2023-02-12T03:22:15.593Z,7.23
2023-02-12T03:24:49.538Z,7.33
2023-02-12T03:27:22.708Z,7.15
2023-02-12T03:29:53.094Z,7.23
2023-02-12T03:33:47.066Z,7.20
2023-02-12T03:36:26.789Z,7.18
2023-02-12T03:38:58.855Z,7.04
2023-02-12T03:41:35.146Z,7.04
2023-02-12T03:44:11.696Z,6.95
2023-02-12T03:46:48.206Z,6.82
2023-02-12T03:49:24.670Z,6.79
2023-02-12T03:51:55.630Z,7.10
2023-02-12T03:54:25.659Z,7.13
2023-02-12T03:56:58.938Z,7.04
2023-02-12T03:59:28.749Z,6.91
2023-02-12T04:02:00.915Z,6.93
2023-02-12T04:04:30.928Z,7.01
2023-02-12T04:07:02.299Z,7.13
2023-02-12T04:09:33.603Z,7.02
2023-02-12T04:12:31.861Z,7.02
2023-02-12T04:15:25.659Z,6.95
2023-02-12T04:18:06.124Z,7.09
2023-02-12T04:20:49.007Z,7.02
2023-02-12T04:23:32.726Z,7.01
2023-02-12T04:26:12.165Z,6.92
2023-02-12T04:28:49.368Z,6.56
2023-02-12T04:31:30.681Z,6.45
2023-02-12T04:34:08.816Z,6.38
2023-02-12T04:36:46.243Z,6.73
2023-02-12T04:39:23.390Z,6.55
2023-02-12T04:41:53.446Z,6.78
2023-02-12T04:44:26.720Z,6.54
2023-02-12T04:46:56.028Z,6.55
2023-02-12T04:49:26.466Z,6.50
2023-02-12T04:51:55.870Z,6.51
2023-02-12T04:54:26.975Z,6.60
2023-02-12T04:56:56.256Z,6.68
2023-02-12T04:59:25.797Z,6.49
2023-02-12T05:01:55.057Z,6.35
2023-02-12T05:04:24.564Z,6.55
2023-02-12T05:06:53.713Z,6.59
2023-02-12T05:09:23.446Z,6.53
2023-02-12T05:11:54.091Z,6.41
2023-02-12T05:14:26.114Z,6.55
2023-02-12T05:16:55.436Z,6.31
2023-02-12T05:19:25.055Z,6.19
2023-02-12T05:21:54.304Z,6.40
2023-02-12T05:24:23.893Z,6.38
2023-02-12T05:26:54.602Z,6.47
2023-02-12T05:29:24.026Z,6.29
2023-02-12T05:31:53.532Z,6.19
2023-02-12T05:34:23.165Z,6.04
2023-02-12T05:36:52.328Z,6.35
2023-02-12T05:39:21.956Z,6.24
2023-02-12T05:41:51.165Z,6.45
2023-02-12T05:44:22.203Z,6.48
2023-02-12T05:46:51.457Z,6.61
2023-02-12T05:49:21.088Z,6.27
2023-02-12T05:51:50.425Z,6.50
2023-02-12T05:54:19.948Z,6.60
2023-02-12T05:56:49.890Z,6.27
2023-02-12T05:59:22.690Z,6.35
2023-02-12T06:01:53.192Z,6.21
2023-02-12T06:04:26.243Z,6.33
2023-02-12T06:06:56.868Z,6.32
2023-02-12T06:09:26.508Z,6.20
2023-02-12T06:11:55.774Z,6.50
2023-02-12T06:14:26.413Z,6.44
2023-02-12T06:16:55.938Z,6.57
2023-02-12T06:19:25.719Z,6.69
2023-02-12T06:21:55.253Z,6.47
2023-02-12T06:24:24.640Z,6.31
2023-02-12T06:26:54.461Z,6.44
2023-02-12T06:29:25.529Z,6.45
2023-02-12T06:31:55.288Z,6.59
2023-02-12T06:34:24.839Z,6.62
2023-02-12T06:36:54.386Z,6.73
2023-02-12T06:39:23.621Z,6.74
2023-02-12T06:41:53.229Z,6.59
2023-02-12T06:44:22.537Z,6.55
2023-02-12T06:46:53.737Z,7.02
2023-02-12T06:49:23.001Z,7.13
2023-02-12T06:51:52.547Z,7.22
2023-02-12T06:54:21.888Z,7.03
2023-02-12T06:56:51.574Z,7.33
2023-02-12T06:59:21.215Z,7.02
2023-02-12T07:01:52.245Z,6.97
2023-02-12T07:04:21.636Z,7.31
2023-02-12T07:06:52.310Z,7.48
2023-02-12T07:09:21.567Z,7.65
2023-02-12T07:11:52.222Z,7.31
2023-02-12T07:14:21.624Z,7.40
2023-02-12T07:16:52.597Z,7.69
2023-02-12T07:19:21.761Z,7.83
2023-02-12T07:21:51.566Z,7.93
2023-02-12T07:24:20.824Z,8.01
2023-02-12T07:26:50.366Z,8.08
2023-02-12T07:29:19.540Z,8.48
2023-02-12T07:31:49.287Z,8.52
2023-02-12T07:34:20.277Z,8.48
2023-02-12T07:36:49.870Z,8.74
2023-02-12T07:39:19.094Z,8.85
2023-02-12T07:41:48.556Z,8.71
2023-02-12T07:44:17.861Z,9.02
2023-02-12T07:46:49.156Z,8.99
2023-02-12T07:49:24.403Z,9.29
2023-02-12T07:51:55.666Z,9.40
2023-02-12T07:54:25.164Z,9.54
2023-02-12T07:56:55.034Z,9.39
2023-02-12T07:59:24.339Z,9.68
2023-02-12T08:01:57.224Z,9.69
2023-02-12T08:04:28.205Z,9.84
2023-02-12T08:06:58.609Z,9.79
2023-02-12T08:09:30.963Z,9.62
2023-02-12T08:12:00.766Z,10.04
2023-02-12T08:14:30.408Z,10.19
2023-02-12T08:16:59.940Z,10.52
2023-02-12T08:19:30.622Z,9.92
2023-02-12T08:22:02.326Z,9.46
2023-02-12T08:24:32.029Z,9.82
2023-02-12T08:27:01.724Z,10.17
2023-02-12T08:29:32.144Z,10.18
2023-02-12T08:32:03.264Z,10.55
2023-02-12T08:34:35.566Z,10.40
2023-02-12T08:37:07.731Z,9.87
2023-02-12T08:39:37.260Z,9.59
2023-02-12T08:42:07.006Z,8.74
2023-02-12T08:44:36.825Z,9.12
2023-02-12T08:47:07.310Z,9.35
2023-02-12T08:49:38.252Z,9.29
2023-02-12T08:52:07.878Z,9.09
2023-02-12T08:54:37.145Z,9.01
2023-02-12T08:57:07.023Z,9.38
2023-02-12T08:59:36.217Z,8.83
2023-02-12T09:02:08.872Z,9.71
2023-02-12T09:04:41.108Z,10.43
2023-02-12T09:07:11.057Z,10.50
2023-02-12T09:09:40.406Z,9.81
2023-02-12T09:12:10.111Z,9.30
2023-02-12T09:14:39.722Z,10.70
2023-02-12T09:17:09.428Z,10.57
2023-02-12T09:19:40.385Z,10.03
2023-02-12T09:22:09.877Z,10.86
2023-02-12T09:24:39.445Z,8.91
2023-02-12T09:27:09.067Z,10.57
2023-02-12T09:29:38.450Z,11.31
2023-02-12T09:32:09.387Z,11.28
2023-02-12T09:34:40.145Z,11.15
2023-02-12T09:37:09.751Z,11.55
2023-02-12T09:39:39.265Z,11.35
2023-02-12T09:42:39.261Z,11.22
2023-02-12T09:45:18.234Z,10.84
2023-02-12T09:47:56.536Z,11.25
2023-02-12T09:50:44.828Z,10.55
2023-02-12T09:53:17.879Z,11.11
2023-02-12T09:55:47.661Z,11.65
2023-02-12T09:58:35.636Z,11.61
2023-02-12T10:01:14.048Z,11.20
2023-02-12T10:03:45.212Z,10.98
2023-02-12T10:06:20.301Z,11.10
2023-02-12T10:09:09.366Z,11.74
2023-02-12T10:11:53.219Z,11.55
2023-02-12T10:14:52.460Z,11.60
2023-02-12T10:17:30.986Z,11.86
2023-02-12T10:20:40.386Z,11.37
2023-02-12T10:23:26.504Z,11.43
2023-02-12T10:25:59.205Z,10.43
2023-02-12T10:28:34.527Z,11.62
2023-02-12T10:31:09.054Z,10.73
2023-02-12T10:33:43.706Z,12.31
2023-02-12T10:36:25.345Z,12.88
2023-02-12T10:39:02.561Z,11.99
2023-02-12T10:41:39.484Z,12.48
2023-02-12T10:44:10.639Z,12.30
2023-02-12T10:46:40.302Z,11.55
2023-02-12T10:49:12.842Z,12.13
2023-02-12T10:51:58.574Z,12.72
2023-02-12T10:54:38.682Z,12.45
2023-02-12T10:57:20.077Z,12.33
2023-02-12T10:59:50.868Z,13.44
2023-02-12T11:02:26.609Z,13.90
2023-02-12T11:04:56.508Z,13.66
2023-02-12T11:07:27.452Z,13.54
2023-02-12T11:09:58.979Z,14.18
2023-02-12T11:12:35.917Z,15.37
2023-02-12T11:15:09.004Z,14.71
2023-02-12T11:17:40.743Z,15.95
2023-02-12T11:20:24.299Z,18.21
2023-02-12T11:22:56.447Z,15.81
2023-02-12T11:25:29.207Z,15.05
2023-02-12T11:28:14.323Z,17.03
2023-02-12T11:30:58.462Z,16.57
2023-02-12T11:33:32.493Z,14.66
2023-02-12T11:36:07.228Z,13.89
2023-02-12T11:38:38.784Z,15.15
2023-02-12T11:41:25.578Z,14.90
2023-02-12T11:43:55.461Z,15.45
2023-02-12T11:46:28.167Z,15.32
2023-02-12T11:49:00.874Z,15.41
2023-02-12T11:51:33.023Z,16.49
2023-02-12T11:54:06.376Z,14.92
2023-02-12T11:56:46.162Z,16.00
2023-02-12T11:59:33.345Z,15.31
2023-02-12T12:02:17.216Z,15.75
2023-02-12T12:04:51.394Z,16.07
2023-02-12T12:07:26.532Z,16.31
2023-02-12T12:09:59.641Z,16.11
2023-02-12T12:12:38.655Z,18.11
2023-02-12T12:15:34.894Z,15.61
2023-02-12T12:18:29.807Z,14.40
2023-02-12T12:21:11.196Z,13.04
2023-02-12T12:23:45.795Z,13.03
2023-02-12T12:26:25.130Z,13.33
2023-02-12T12:29:02.804Z,12.67
2023-02-12T12:31:36.036Z,12.06
2023-02-12T12:34:10.194Z,13.03
2023-02-12T12:37:24.159Z,12.80
2023-02-12T12:40:11.835Z,11.81
2023-02-12T12:43:03.601Z,11.22
2023-02-12T12:46:05.299Z,11.79
2023-02-12T12:48:49.420Z,11.57
2023-02-12T12:51:41.213Z,12.03
2023-02-12T12:54:26.912Z,12.27
2023-02-12T12:57:06.321Z,11.64
2023-02-12T13:00:14.826Z,11.31
2023-02-12T13:03:18.029Z,11.35
2023-02-12T13:06:26.748Z,11.48
2023-02-12T13:09:30.286Z,9.85
2023-02-12T13:12:29.477Z,10.45
2023-02-12T13:15:05.603Z,10.74
2023-02-12T13:17:45.976Z,10.83
2023-02-12T13:20:23.478Z,11.38
2023-02-12T13:22:58.818Z,11.36
2023-02-12T13:25:33.298Z,10.31
2023-02-12T13:28:06.695Z,10.57
2023-02-12T13:30:44.414Z,9.92
2023-02-12T13:33:21.257Z,10.70
2023-02-12T13:35:56.812Z,11.36
2023-02-12T13:38:30.022Z,11.22
2023-02-12T13:41:03.445Z,10.39
2023-02-12T13:43:45.611Z,10.37
2023-02-12T13:46:22.817Z,10.19
2023-02-12T13:49:02.042Z,10.22
2023-02-12T13:51:43.095Z,10.05
2023-02-12T13:54:31.337Z,10.23
2023-02-12T13:57:03.517Z,10.24
2023-02-12T13:59:53.781Z,10.03
2023-02-12T14:02:53.714Z,9.83
2023-02-12T14:05:27.281Z,10.12
2023-02-12T14:08:00.622Z,10.78
2023-02-12T14:10:35.935Z,10.01
2023-02-12T14:13:17.670Z,10.02
2023-02-12T14:15:51.554Z,10.17
2023-02-12T14:18:36.001Z,10.03
2023-02-12T14:21:38.920Z,10.30
2023-02-12T14:24:52.749Z,10.56
2023-02-12T14:27:37.592Z,10.53
2023-02-12T14:30:31.607Z,10.76
2023-02-12T14:33:25.936Z,11.22
2023-02-12T14:36:15.367Z,11.57
2023-02-12T14:39:05.533Z,11.08
2023-02-12T14:41:39.017Z,10.98
2023-02-12T14:44:42.036Z,11.56
2023-02-12T14:47:44.182Z,10.91
2023-02-12T14:50:24.736Z,11.92
2023-02-12T14:53:00.187Z,10.99
2023-02-12T14:55:32.581Z,10.99
2023-02-12T14:58:06.749Z,10.85
2023-02-12T15:00:42.055Z,10.69
2023-02-12T15:03:25.333Z,11.46
2023-02-12T15:06:11.348Z,11.50
2023-02-12T15:08:48.723Z,12.23
2023-02-12T15:11:36.844Z,12.32
2023-02-12T15:14:14.109Z,12.57
2023-02-12T15:16:52.708Z,12.36
2023-02-12T15:19:39.376Z,12.36
2023-02-12T15:22:21.767Z,11.93
2023-02-12T15:24:51.454Z,11.87
2023-02-12T15:27:22.255Z,11.79
2023-02-12T15:29:54.734Z,12.08
2023-02-12T15:32:28.621Z,11.25
2023-02-12T15:34:58.537Z,11.07
2023-02-12T15:37:31.033Z,11.18
2023-02-12T15:40:03.838Z,11.80
2023-02-12T15:42:35.654Z,12.10
2023-02-12T15:45:21.748Z,12.48
2023-02-12T15:48:02.120Z,12.43
2023-02-12T15:50:33.350Z,11.53
2023-02-12T15:53:04.366Z,12.13
2023-02-12T15:55:41.422Z,11.64
2023-02-12T15:58:22.904Z,11.81
2023-02-12T16:00:56.098Z,11.84
2023-02-12T16:03:34.063Z,11.90
2023-02-12T16:06:11.284Z,11.25
2023-02-12T16:08:41.800Z,11.67
2023-02-12T16:11:16.842Z,11.87
2023-02-12T16:13:49.003Z,11.67
2023-02-12T16:16:25.104Z,11.51
2023-02-12T16:19:17.538Z,11.80
2023-02-12T16:21:49.375Z,11.73
2023-02-12T16:24:32.927Z,12.01
2023-02-12T16:27:08.788Z,12.88
2023-02-12T16:29:46.752Z,12.77
2023-02-12T16:32:32.164Z,12.10
2023-02-12T16:35:05.408Z,12.14
2023-02-12T16:37:47.219Z,12.24
2023-02-12T16:40:30.648Z,13.28
2023-02-12T16:43:03.456Z,13.44
2023-02-12T16:45:39.175Z,12.83
2023-02-12T16:48:23.441Z,12.74
2023-02-12T16:50:55.896Z,13.01
2023-02-12T16:53:47.312Z,12.90
2023-02-12T16:56:21.268Z,12.94
2023-02-12T16:58:54.714Z,13.06
2023-02-12T17:01:27.689Z,13.21
2023-02-12T17:03:59.462Z,13.11
2023-02-12T17:06:31.035Z,13.08
2023-02-12T17:09:01.155Z,12.93
2023-02-12T17:11:31.129Z,13.06
2023-02-12T17:14:00.829Z,13.22
2023-02-12T17:16:32.066Z,13.30
2023-02-12T17:19:03.255Z,12.89
2023-02-12T17:21:38.313Z,12.82
2023-02-12T17:24:10.224Z,12.80
2023-02-12T17:26:40.060Z,12.67
2023-02-12T17:29:09.372Z,12.51
2023-02-12T17:31:39.012Z,11.76
2023-02-12T17:34:09.919Z,12.49
2023-02-12T17:36:40.203Z,12.53
2023-02-12T17:39:10.651Z,12.83
2023-02-12T17:41:40.914Z,12.60
2023-02-12T17:44:11.979Z,12.45
2023-02-12T17:46:42.107Z,12.94
2023-02-12T17:49:13.369Z,12.23
2023-02-12T17:51:43.249Z,12.57
2023-02-12T17:54:14.032Z,12.73
2023-02-12T17:56:43.826Z,12.49
2023-02-12T17:59:13.433Z,13.04
2023-02-12T18:01:43.330Z,13.74
2023-02-12T18:04:14.225Z,13.28
2023-02-12T18:06:45.151Z,13.38
2023-02-12T18:09:14.898Z,12.78
2023-02-12T18:11:44.558Z,12.97
2023-02-12T18:14:14.408Z,13.36
2023-02-12T18:16:44.082Z,13.43
2023-02-12T18:19:14.930Z,13.54
2023-02-12T18:21:44.715Z,12.73
2023-02-12T18:24:14.890Z,13.45
2023-02-12T18:26:45.458Z,13.62
2023-02-12T18:29:15.080Z,13.64
2023-02-12T18:31:44.998Z,13.45
2023-02-12T18:34:15.656Z,13.38
2023-02-12T18:36:45.672Z,13.45
2023-02-12T18:39:14.962Z,13.30
2023-02-12T18:41:45.089Z,14.06
2023-02-12T18:44:14.900Z,13.51
2023-02-12T18:46:44.633Z,13.47
2023-02-12T18:49:16.849Z,13.60
2023-02-12T18:51:46.510Z,13.41
2023-02-12T18:54:16.781Z,13.38
2023-02-12T18:56:48.262Z,13.59
2023-02-12T18:59:18.995Z,13.26
2023-02-12T19:01:50.786Z,13.00
2023-02-12T19:04:23.847Z,13.37
2023-02-12T19:06:55.622Z,13.28
2023-02-12T19:09:29.113Z,13.42
2023-02-12T19:12:01.538Z,12.98
2023-02-12T19:14:31.580Z,13.12
2023-02-12T19:17:01.514Z,13.59
2023-02-12T19:19:32.472Z,13.94
2023-02-12T19:22:02.023Z,13.27
2023-02-12T19:24:44.696Z,13.50
2023-02-12T19:27:16.172Z,13.48
2023-02-12T19:29:45.828Z,13.35
2023-02-12T19:32:15.564Z,14.07
2023-02-12T19:34:46.590Z,13.38
2023-02-12T19:37:16.655Z,13.51
2023-02-12T19:39:46.971Z,14.17
2023-02-12T19:42:17.679Z,14.42
2023-02-12T19:44:47.634Z,13.58
2023-02-12T19:47:17.892Z,14.06
2023-02-12T19:49:48.581Z,13.69
2023-02-12T19:52:18.273Z,14.29
2023-02-12T19:54:47.586Z,14.29
2023-02-12T19:57:17.249Z,14.42
2023-02-12T19:59:47.105Z,13.46
2023-02-12T20:02:16.772Z,13.70
2023-02-12T20:04:47.758Z,14.23
2023-02-12T20:07:17.207Z,14.59
2023-02-12T20:09:46.762Z,13.93
2023-02-12T20:12:16.685Z,13.50
2023-02-12T20:14:46.169Z,13.54
2023-02-12T20:17:15.919Z,13.45
2023-02-12T20:19:45.681Z,13.78
2023-02-12T20:22:17.058Z,13.52
2023-02-12T20:24:46.464Z,13.52
2023-02-12T20:27:16.319Z,13.89
2023-02-12T20:29:45.838Z,13.98
2023-02-12T20:32:15.677Z,13.88
2023-02-12T20:34:50.856Z,13.60
2023-02-12T20:37:21.924Z,13.36
2023-02-12T20:39:51.370Z,13.60
2023-02-12T20:42:21.080Z,13.27
2023-02-12T20:44:50.481Z,14.12
2023-02-12T20:47:23.268Z,14.17
2023-02-12T20:49:52.688Z,13.67
2023-02-12T20:52:24.108Z,13.82
2023-02-12T20:54:53.418Z,13.98
2023-02-12T20:57:22.899Z,13.95
2023-02-12T20:59:52.119Z,13.94
2023-02-12T21:02:22.260Z,13.86
2023-02-12T21:04:52.521Z,14.18
2023-02-12T21:07:24.448Z,13.92
2023-02-12T21:09:56.767Z,14.10
2023-02-12T21:12:26.446Z,13.52
2023-02-12T21:14:55.714Z,13.71
2023-02-12T21:17:25.315Z,13.63
2023-02-12T21:19:54.581Z,13.62
2023-02-12T21:22:25.527Z,13.70
2023-02-12T21:24:54.943Z,13.85
2023-02-12T21:27:24.537Z,13.78
2023-02-12T21:29:53.872Z,13.91
2023-02-12T21:32:23.705Z,13.52
2023-02-12T21:34:53.095Z,13.69
2023-02-12T21:37:24.194Z,13.75
2023-02-12T21:39:53.403Z,13.58
2023-02-12T21:42:23.126Z,13.65
2023-02-12T21:44:52.789Z,13.48
2023-02-12T21:47:22.200Z,12.70
2023-02-12T21:49:52.100Z,13.57
2023-02-12T21:52:21.774Z,12.96
2023-02-12T21:54:53.597Z,13.33
2023-02-12T21:57:23.804Z,13.29
2023-02-12T21:59:53.133Z,13.09
2023-02-12T22:02:22.821Z,12.64
2023-02-12T22:04:54.819Z,12.99
2023-02-12T22:07:24.494Z,13.19
2023-02-12T22:09:57.434Z,12.54
2023-02-12T22:12:30.359Z,13.07
2023-02-12T22:14:59.655Z,12.92
2023-02-12T22:17:29.138Z,13.03
2023-02-12T22:19:58.367Z,12.79
2023-02-12T22:22:28.112Z,13.12
2023-02-12T22:24:58.725Z,12.85
2023-02-12T22:27:28.234Z,12.84
2023-02-12T22:29:57.607Z,13.41
2023-02-12T22:32:27.893Z,13.27
2023-02-12T22:34:57.129Z,12.92
2023-02-12T22:37:26.665Z,13.20
2023-02-12T22:39:57.631Z,12.87
2023-02-12T22:42:27.158Z,12.63
2023-02-12T22:44:56.412Z,13.31
2023-02-12T22:47:26.199Z,12.55
2023-02-12T22:49:55.709Z,12.45
2023-02-12T22:52:25.194Z,13.05
2023-02-12T22:54:54.477Z,12.88
2023-02-12T22:57:25.539Z,13.08
2023-02-12T22:59:55.210Z,12.49
2023-02-12T23:02:24.757Z,12.74
2023-02-12T23:04:54.062Z,12.63
2023-02-12T23:07:23.647Z,12.85
2023-02-12T23:09:52.824Z,13.12
2023-02-12T23:12:22.472Z,13.08
2023-02-12T23:14:53.011Z,12.88
2023-02-12T23:17:22.584Z,12.55
2023-02-12T23:19:51.814Z,12.67
2023-02-12T23:22:21.427Z,12.79
2023-02-12T23:24:51.101Z,12.97
2023-02-12T23:27:20.803Z,13.13
2023-02-12T23:29:50.043Z,12.88
2023-02-12T23:32:20.995Z,12.66
2023-02-12T23:34:50.178Z,12.54
2023-02-12T23:37:19.786Z,11.87
2023-02-12T23:39:48.935Z,12.44
2023-02-12T23:42:19.213Z,12.20
2023-02-12T23:44:48.402Z,12.56
2023-02-12T23:47:19.288Z,12.43
2023-02-12T23:49:48.514Z,12.45
2023-02-12T23:52:17.920Z,12.20
2023-02-12T23:54:47.251Z,12.15
2023-02-12T23:57:16.808Z,11.81
2023-02-12T23:59:46.017Z,11.79
